This is the latest recevied weather packets stored in our database for station/object LU2DKV-10. If no packets are shown the sender has not sent any weather packets the latest 10 day(s).
| Time | Temp. | Humidity | Pressure | Rain* | Wind** | Luminosity | Snow |
|---|---|---|---|---|---|---|---|
| 1788541907 | 16.11° C | 38% | 1016 hPa | - | - | 0 W/m² | - |
| 1788540083 | 16.11° C | 39% | 1017 hPa | - | - | 0 W/m² | - |
| 1788538262 | 16.11° C | 50% | 1017 hPa | - | - | 0 W/m² | - |
| 1788536437 | 15° C | 43% | 1018 hPa | - | - | 0 W/m² | - |
| 1788534611 | 15° C | 47% | 1018 hPa | - | - | 0 W/m² | - |
| 1788532791 | 14.44° C | 46% | 1018 hPa | - | - | 0 W/m² | - |
| 1788530965 | 13.89° C | 50% | 1019 hPa | - | - | 0 W/m² | - |
| 1788529164 | 13.33° C | 58% | 1019 hPa | - | - | 0 W/m² | - |
| 1788527321 | 13.33° C | 69% | 1019 hPa | - | - | 0 W/m² | - |
| 1788525500 | 12.78° C | 67% | 1019 hPa | - | - | 0 W/m² | - |
| 1788523676 | 12.78° C | 69% | 1018 hPa | - | - | 0 W/m² | - |
| 1788521851 | 12.22° C | 72% | 1018 hPa | - | - | 0 W/m² | - |
| 1788520031 | 10.56° C | 79% | 1018 hPa | - | - | 0 W/m² | - |
| 1788518207 | 10° C | 82% | 1018 hPa | - | - | 0 W/m² | - |
| 1788486145 | 13.89° C | 57% | 1015 hPa | - | - | 0 W/m² | - |
| 1788484315 | 14.44° C | 56% | 1014 hPa | - | - | 0 W/m² | - |
| 1788482492 | 14.44° C | 55% | 1014 hPa | - | - | 0 W/m² | - |
| 1788480660 | 15° C | 54% | 1014 hPa | - | - | 0 W/m² | - |
| 1788478839 | 15.56° C | 52% | 1013 hPa | - | - | 0 W/m² | - |
| 1788477013 | 15.56° C | 53% | 1013 hPa | - | - | 0 W/m² | - |
| 1788475191 | 16.11° C | 52% | 1012 hPa | - | - | 0 W/m² | - |
| 1788473367 | 16.67° C | 50% | 1012 hPa | - | - | 0 W/m² | - |
| 1788471541 | 17.22° C | 51% | 1012 hPa | - | - | 0 W/m² | - |
| 1788469717 | 17.78° C | 47% | 1011 hPa | - | - | 0 W/m² | - |
| 1788467894 | 18.33° C | 52% | 1011 hPa | - | - | 0 W/m² | - |
* Rain since midnight (hover to see other rain measurements)
** Current wind speed in m/s (hover to see current wind gust speed)